sensor_id;sensor_type;location;lat;lon;timestamp;pressure;altitude;pressure_sealevel;temperature;humidity
4022;BME280;2025;48.260;16.432;2023-07-20T00:01:34;99265.19;;;19.44;63.80
4022;BME280;2025;48.260;16.432;2023-07-20T00:04:01;99259.50;;;19.41;63.67
4022;BME280;2025;48.260;16.432;2023-07-20T00:06:28;99263.31;;;19.45;63.47
4022;BME280;2025;48.260;16.432;2023-07-20T00:08:55;99255.22;;;19.40;64.19
4022;BME280;2025;48.260;16.432;2023-07-20T00:11:26;99258.34;;;19.65;63.28
4022;BME280;2025;48.260;16.432;2023-07-20T00:13:53;99243.81;;;19.73;63.69
4022;BME280;2025;48.260;16.432;2023-07-20T00:16:20;99232.00;;;19.57;64.36
4022;BME280;2025;48.260;16.432;2023-07-20T00:18:47;99235.47;;;19.41;64.38
4022;BME280;2025;48.260;16.432;2023-07-20T00:21:14;99238.19;;;19.29;64.84
4022;BME280;2025;48.260;16.432;2023-07-20T00:23:41;99226.09;;;19.09;65.48
4022;BME280;2025;48.260;16.432;2023-07-20T00:26:08;99225.72;;;19.06;66.53
4022;BME280;2025;48.260;16.432;2023-07-20T00:28:36;99234.84;;;18.93;66.87
4022;BME280;2025;48.260;16.432;2023-07-20T00:31:04;99239.25;;;18.75;67.51
4022;BME280;2025;48.260;16.432;2023-07-20T00:33:31;99243.22;;;18.61;67.86
4022;BME280;2025;48.260;16.432;2023-07-20T00:35:58;99249.72;;;18.53;68.48
4022;BME280;2025;48.260;16.432;2023-07-20T00:38:25;99253.53;;;18.46;68.98
4022;BME280;2025;48.260;16.432;2023-07-20T00:40:52;99254.00;;;18.54;68.59
4022;BME280;2025;48.260;16.432;2023-07-20T00:43:19;99257.47;;;18.43;69.26
4022;BME280;2025;48.260;16.432;2023-07-20T00:45:47;99264.66;;;18.43;68.94
4022;BME280;2025;48.260;16.432;2023-07-20T00:48:15;99264.34;;;18.51;67.71
4022;BME280;2025;48.260;16.432;2023-07-20T00:50:42;99263.75;;;18.61;67.32
4022;BME280;2025;48.260;16.432;2023-07-20T00:53:09;99269.78;;;18.56;67.73
4022;BME280;2025;48.260;16.432;2023-07-20T00:55:36;99276.03;;;18.62;67.88
4022;BME280;2025;48.260;16.432;2023-07-20T00:58:03;99275.09;;;18.68;67.07
4022;BME280;2025;48.260;16.432;2023-07-20T01:00:31;99267.69;;;18.82;66.93
4022;BME280;2025;48.260;16.432;2023-07-20T01:02:59;99267.22;;;18.85;66.64
4022;BME280;2025;48.260;16.432;2023-07-20T01:05:36;99265.63;;;19.12;65.46
4022;BME280;2025;48.260;16.432;2023-07-20T01:08:09;99272.34;;;19.44;64.38
4022;BME280;2025;48.260;16.432;2023-07-20T01:10:42;99265.66;;;19.70;63.63
4022;BME280;2025;48.260;16.432;2023-07-20T01:13:12;99258.63;;;19.81;63.37
4022;BME280;2025;48.260;16.432;2023-07-20T01:15:41;99240.41;;;19.94;63.39
4022;BME280;2025;48.260;16.432;2023-07-20T01:18:09;99241.63;;;20.04;63.01
4022;BME280;2025;48.260;16.432;2023-07-20T01:20:37;99246.47;;;19.90;64.59
4022;BME280;2025;48.260;16.432;2023-07-20T01:23:28;99240.19;;;19.67;66.24
4022;BME280;2025;48.260;16.432;2023-07-20T01:26:10;99244.03;;;19.43;66.34
4022;BME280;2025;48.260;16.432;2023-07-20T01:29:13;99246.63;;;19.37;65.05
4022;BME280;2025;48.260;16.432;2023-07-20T01:31:47;99245.25;;;19.35;64.77
4022;BME280;2025;48.260;16.432;2023-07-20T01:34:18;99247.53;;;19.43;65.53
4022;BME280;2025;48.260;16.432;2023-07-20T01:36:46;99230.75;;;19.76;60.83
4022;BME280;2025;48.260;16.432;2023-07-20T01:39:16;99231.00;;;20.26;58.35
4022;BME280;2025;48.260;16.432;2023-07-20T01:41:44;99217.63;;;20.65;56.80
4022;BME280;2025;48.260;16.432;2023-07-20T01:44:12;99223.31;;;20.90;56.35
4022;BME280;2025;48.260;16.432;2023-07-20T01:46:40;99222.13;;;21.03;56.23
4022;BME280;2025;48.260;16.432;2023-07-20T01:49:08;99214.50;;;21.17;54.73
4022;BME280;2025;48.260;16.432;2023-07-20T01:51:35;99225.72;;;21.14;56.22
4022;BME280;2025;48.260;16.432;2023-07-20T01:54:02;99221.38;;;21.08;56.33
4022;BME280;2025;48.260;16.432;2023-07-20T01:56:29;99228.91;;;21.11;55.76
4022;BME280;2025;48.260;16.432;2023-07-20T01:58:56;99221.66;;;21.11;55.56
4022;BME280;2025;48.260;16.432;2023-07-20T02:01:23;99227.81;;;21.12;55.06
4022;BME280;2025;48.260;16.432;2023-07-20T02:03:50;99233.25;;;21.17;55.04
4022;BME280;2025;48.260;16.432;2023-07-20T02:06:18;99234.06;;;21.17;54.65
4022;BME280;2025;48.260;16.432;2023-07-20T02:08:45;99235.44;;;21.20;54.30
4022;BME280;2025;48.260;16.432;2023-07-20T02:11:12;99244.53;;;21.19;54.73
4022;BME280;2025;48.260;16.432;2023-07-20T02:13:39;99245.81;;;21.16;55.20
4022;BME280;2025;48.260;16.432;2023-07-20T02:16:06;99249.88;;;21.19;55.08
4022;BME280;2025;48.260;16.432;2023-07-20T02:18:33;99254.06;;;21.10;55.96
4022;BME280;2025;48.260;16.432;2023-07-20T02:21:00;99252.94;;;21.05;55.49
4022;BME280;2025;48.260;16.432;2023-07-20T02:23:29;99249.13;;;21.01;56.09
4022;BME280;2025;48.260;16.432;2023-07-20T02:25:56;99269.59;;;20.91;57.15
4022;BME280;2025;48.260;16.432;2023-07-20T02:28:23;99265.09;;;20.91;56.84
4022;BME280;2025;48.260;16.432;2023-07-20T02:30:50;99269.38;;;20.92;56.44
4022;BME280;2025;48.260;16.432;2023-07-20T02:33:17;99270.13;;;20.88;57.75
4022;BME280;2025;48.260;16.432;2023-07-20T02:35:44;99268.91;;;20.78;57.04
4022;BME280;2025;48.260;16.432;2023-07-20T02:38:11;99268.63;;;20.75;57.41
4022;BME280;2025;48.260;16.432;2023-07-20T02:40:39;99276.31;;;20.71;57.65
4022;BME280;2025;48.260;16.432;2023-07-20T02:43:06;99276.09;;;20.73;56.89
4022;BME280;2025;48.260;16.432;2023-07-20T02:45:35;99278.50;;;20.74;57.60
4022;BME280;2025;48.260;16.432;2023-07-20T02:48:02;99286.78;;;20.73;57.48
4022;BME280;2025;48.260;16.432;2023-07-20T02:50:33;99296.91;;;20.71;57.75
4022;BME280;2025;48.260;16.432;2023-07-20T02:53:00;99297.72;;;20.71;57.17
4022;BME280;2025;48.260;16.432;2023-07-20T02:55:27;99300.00;;;20.79;56.43
4022;BME280;2025;48.260;16.432;2023-07-20T02:57:56;99299.66;;;20.76;56.80
4022;BME280;2025;48.260;16.432;2023-07-20T03:00:23;99304.44;;;20.74;57.38
4022;BME280;2025;48.260;16.432;2023-07-20T03:02:51;99312.75;;;20.72;58.27
4022;BME280;2025;48.260;16.432;2023-07-20T03:05:21;99309.06;;;20.78;56.20
4022;BME280;2025;48.260;16.432;2023-07-20T03:07:50;99311.16;;;20.93;55.01
4022;BME280;2025;48.260;16.432;2023-07-20T03:10:17;99324.66;;;21.03;54.83
4022;BME280;2025;48.260;16.432;2023-07-20T03:12:44;99333.94;;;21.18;54.52
4022;BME280;2025;48.260;16.432;2023-07-20T03:15:13;99325.16;;;21.22;55.04
4022;BME280;2025;48.260;16.432;2023-07-20T03:17:40;99338.31;;;21.24;55.73
4022;BME280;2025;48.260;16.432;2023-07-20T03:20:08;99327.59;;;21.24;55.45
4022;BME280;2025;48.260;16.432;2023-07-20T03:22:36;99338.47;;;21.17;55.94
4022;BME280;2025;48.260;16.432;2023-07-20T03:25:04;99349.44;;;21.16;56.17
4022;BME280;2025;48.260;16.432;2023-07-20T03:27:31;99349.44;;;21.16;56.62
4022;BME280;2025;48.260;16.432;2023-07-20T03:29:58;99350.44;;;21.10;57.42
4022;BME280;2025;48.260;16.432;2023-07-20T03:32:27;99354.97;;;21.09;57.52
4022;BME280;2025;48.260;16.432;2023-07-20T03:34:54;99356.28;;;21.07;57.61
4022;BME280;2025;48.260;16.432;2023-07-20T03:37:21;99362.44;;;21.07;57.93
4022;BME280;2025;48.260;16.432;2023-07-20T03:39:48;99369.09;;;21.04;58.22
4022;BME280;2025;48.260;16.432;2023-07-20T03:42:15;99373.41;;;21.05;58.17
4022;BME280;2025;48.260;16.432;2023-07-20T03:44:42;99378.03;;;21.10;58.64
4022;BME280;2025;48.260;16.432;2023-07-20T03:47:09;99388.72;;;21.10;58.56
4022;BME280;2025;48.260;16.432;2023-07-20T03:49:37;99387.34;;;21.08;58.36
4022;BME280;2025;48.260;16.432;2023-07-20T03:52:04;99394.16;;;21.15;58.09
4022;BME280;2025;48.260;16.432;2023-07-20T03:54:31;99397.97;;;21.19;58.38
4022;BME280;2025;48.260;16.432;2023-07-20T03:56:58;99400.06;;;21.17;58.45
4022;BME280;2025;48.260;16.432;2023-07-20T03:59:26;99395.56;;;21.23;57.80
4022;BME280;2025;48.260;16.432;2023-07-20T04:01:53;99393.47;;;21.25;58.04
4022;BME280;2025;48.260;16.432;2023-07-20T04:04:20;99393.69;;;21.23;57.08
4022;BME280;2025;48.260;16.432;2023-07-20T04:06:48;99403.38;;;21.24;57.63
4022;BME280;2025;48.260;16.432;2023-07-20T04:09:15;99394.84;;;21.27;57.09
4022;BME280;2025;48.260;16.432;2023-07-20T04:11:42;99396.38;;;21.23;58.35
4022;BME280;2025;48.260;16.432;2023-07-20T04:14:09;99398.03;;;21.24;58.02
4022;BME280;2025;48.260;16.432;2023-07-20T04:16:36;99409.53;;;21.25;57.94
4022;BME280;2025;48.260;16.432;2023-07-20T04:19:03;99407.09;;;21.23;57.66
4022;BME280;2025;48.260;16.432;2023-07-20T04:21:30;99404.41;;;21.23;58.21
4022;BME280;2025;48.260;16.432;2023-07-20T04:23:59;99408.66;;;21.19;58.22
4022;BME280;2025;48.260;16.432;2023-07-20T04:26:26;99416.69;;;21.19;58.64
4022;BME280;2025;48.260;16.432;2023-07-20T04:28:53;99428.78;;;21.22;58.81
4022;BME280;2025;48.260;16.432;2023-07-20T04:31:20;99426.97;;;21.27;58.05
4022;BME280;2025;48.260;16.432;2023-07-20T04:33:47;99431.34;;;21.34;58.07
4022;BME280;2025;48.260;16.432;2023-07-20T04:36:14;99431.41;;;21.39;57.28
4022;BME280;2025;48.260;16.432;2023-07-20T04:38:44;99433.94;;;21.45;57.45
4022;BME280;2025;48.260;16.432;2023-07-20T04:41:13;99432.97;;;21.52;57.55
4022;BME280;2025;48.260;16.432;2023-07-20T04:43:41;99436.75;;;21.56;57.62
4022;BME280;2025;48.260;16.432;2023-07-20T04:46:08;99437.31;;;21.58;57.29
4022;BME280;2025;48.260;16.432;2023-07-20T04:48:35;99434.06;;;21.56;57.43
4022;BME280;2025;48.260;16.432;2023-07-20T04:51:03;99432.44;;;21.55;57.25
4022;BME280;2025;48.260;16.432;2023-07-20T04:53:30;99433.59;;;21.59;57.64
4022;BME280;2025;48.260;16.432;2023-07-20T04:55:57;99444.22;;;21.54;57.16
4022;BME280;2025;48.260;16.432;2023-07-20T04:58:26;99441.28;;;21.55;57.35
4022;BME280;2025;48.260;16.432;2023-07-20T05:00:53;99439.75;;;21.59;57.26
4022;BME280;2025;48.260;16.432;2023-07-20T05:03:20;99443.97;;;21.55;58.49
4022;BME280;2025;48.260;16.432;2023-07-20T05:05:47;99442.41;;;21.59;57.94
4022;BME280;2025;48.260;16.432;2023-07-20T05:08:14;99437.47;;;21.51;58.93
4022;BME280;2025;48.260;16.432;2023-07-20T05:10:41;99433.75;;;21.52;58.46
4022;BME280;2025;48.260;16.432;2023-07-20T05:13:08;99438.03;;;21.53;57.94
4022;BME280;2025;48.260;16.432;2023-07-20T05:15:37;99438.38;;;21.57;58.35
4022;BME280;2025;48.260;16.432;2023-07-20T05:18:04;99441.50;;;21.71;58.35
4022;BME280;2025;48.260;16.432;2023-07-20T05:20:31;99447.72;;;21.76;57.97
4022;BME280;2025;48.260;16.432;2023-07-20T05:22:59;99452.31;;;21.81;57.43
4022;BME280;2025;48.260;16.432;2023-07-20T05:25:26;99458.75;;;21.80;58.45
4022;BME280;2025;48.260;16.432;2023-07-20T05:27:53;99465.16;;;21.79;57.92
4022;BME280;2025;48.260;16.432;2023-07-20T05:30:21;99458.75;;;21.80;58.11
4022;BME280;2025;48.260;16.432;2023-07-20T05:32:50;99454.72;;;21.77;58.65
4022;BME280;2025;48.260;16.432;2023-07-20T05:35:19;99455.63;;;21.66;59.06
4022;BME280;2025;48.260;16.432;2023-07-20T05:37:47;99454.06;;;21.70;59.05
4022;BME280;2025;48.260;16.432;2023-07-20T05:40:15;99456.75;;;21.70;59.05
4022;BME280;2025;48.260;16.432;2023-07-20T05:42:44;99461.03;;;21.93;59.02
4022;BME280;2025;48.260;16.432;2023-07-20T05:45:13;99449.88;;;22.01;58.67
4022;BME280;2025;48.260;16.432;2023-07-20T05:47:41;99447.09;;;22.18;58.62
4022;BME280;2025;48.260;16.432;2023-07-20T05:50:10;99456.13;;;22.34;58.92
4022;BME280;2025;48.260;16.432;2023-07-20T05:52:37;99462.34;;;22.40;58.69
4022;BME280;2025;48.260;16.432;2023-07-20T05:55:05;99454.41;;;22.50;57.11
4022;BME280;2025;48.260;16.432;2023-07-20T05:57:33;99457.84;;;22.45;57.91
4022;BME280;2025;48.260;16.432;2023-07-20T06:00:01;99465.22;;;22.60;57.70
4022;BME280;2025;48.260;16.432;2023-07-20T06:02:28;99462.28;;;22.62;58.00
4022;BME280;2025;48.260;16.432;2023-07-20T06:04:55;99460.41;;;22.62;57.06
4022;BME280;2025;48.260;16.432;2023-07-20T06:07:24;99461.13;;;22.52;57.46
4022;BME280;2025;48.260;16.432;2023-07-20T06:09:51;99461.34;;;22.46;57.22
4022;BME280;2025;48.260;16.432;2023-07-20T06:12:18;99466.47;;;22.47;57.49
4022;BME280;2025;48.260;16.432;2023-07-20T06:14:45;99463.63;;;22.59;56.70
4022;BME280;2025;48.260;16.432;2023-07-20T06:17:12;99468.72;;;22.61;56.45
4022;BME280;2025;48.260;16.432;2023-07-20T06:19:38;99475.34;;;22.53;57.99
4022;BME280;2025;48.260;16.432;2023-07-20T06:22:05;99473.03;;;22.62;54.61
4022;BME280;2025;48.260;16.432;2023-07-20T06:24:34;99479.44;;;22.61;55.84
4022;BME280;2025;48.260;16.432;2023-07-20T06:27:01;99484.91;;;22.71;54.99
4022;BME280;2025;48.260;16.432;2023-07-20T06:29:28;99473.13;;;22.77;54.99
4022;BME280;2025;48.260;16.432;2023-07-20T06:31:55;99473.19;;;22.82;54.07
4022;BME280;2025;48.260;16.432;2023-07-20T06:34:21;99470.22;;;22.79;53.23
4022;BME280;2025;48.260;16.432;2023-07-20T06:36:49;99477.50;;;22.83;53.22
4022;BME280;2025;48.260;16.432;2023-07-20T06:39:16;99474.06;;;22.93;54.21
4022;BME280;2025;48.260;16.432;2023-07-20T06:41:44;99476.88;;;23.03;52.98
4022;BME280;2025;48.260;16.432;2023-07-20T06:44:11;99482.31;;;23.13;52.39
4022;BME280;2025;48.260;16.432;2023-07-20T06:46:38;99484.22;;;23.18;51.85
4022;BME280;2025;48.260;16.432;2023-07-20T06:49:06;99492.03;;;23.20;51.88
4022;BME280;2025;48.260;16.432;2023-07-20T06:51:33;99489.03;;;23.16;51.71
4022;BME280;2025;48.260;16.432;2023-07-20T06:54:01;99494.66;;;23.14;51.91
4022;BME280;2025;48.260;16.432;2023-07-20T06:56:30;99484.47;;;23.17;52.08
4022;BME280;2025;48.260;16.432;2023-07-20T06:58:58;99491.53;;;23.28;50.68
4022;BME280;2025;48.260;16.432;2023-07-20T07:01:25;99488.03;;;23.27;51.76
4022;BME280;2025;48.260;16.432;2023-07-20T07:03:52;99482.31;;;23.13;51.61
4022;BME280;2025;48.260;16.432;2023-07-20T07:06:19;99476.38;;;23.11;50.61
4022;BME280;2025;48.260;16.432;2023-07-20T07:08:48;99475.38;;;23.23;50.29
4022;BME280;2025;48.260;16.432;2023-07-20T07:11:14;99475.19;;;23.34;50.24
4022;BME280;2025;48.260;16.432;2023-07-20T07:13:41;99484.06;;;23.40;49.63
4022;BME280;2025;48.260;16.432;2023-07-20T07:16:10;99475.13;;;23.24;50.50
4022;BME280;2025;48.260;16.432;2023-07-20T07:18:37;99487.00;;;23.33;52.05
4022;BME280;2025;48.260;16.432;2023-07-20T07:21:05;99487.53;;;23.35;49.16
4022;BME280;2025;48.260;16.432;2023-07-20T07:23:32;99488.41;;;23.41;50.35
4022;BME280;2025;48.260;16.432;2023-07-20T07:25:59;99482.78;;;23.43;50.33
4022;BME280;2025;48.260;16.432;2023-07-20T07:28:28;99485.75;;;23.51;50.29
4022;BME280;2025;48.260;16.432;2023-07-20T07:30:55;99487.41;;;23.63;49.89
4022;BME280;2025;48.260;16.432;2023-07-20T07:33:24;99483.22;;;23.82;49.32
4022;BME280;2025;48.260;16.432;2023-07-20T07:35:52;99482.72;;;23.85;49.90
4022;BME280;2025;48.260;16.432;2023-07-20T07:38:19;99486.22;;;23.91;49.87
4022;BME280;2025;48.260;16.432;2023-07-20T07:40:46;99487.47;;;23.73;49.43
4022;BME280;2025;48.260;16.432;2023-07-20T07:43:13;99481.28;;;23.72;49.67
4022;BME280;2025;48.260;16.432;2023-07-20T07:45:40;99489.44;;;23.83;49.23
4022;BME280;2025;48.260;16.432;2023-07-20T07:48:08;99468.44;;;23.80;51.13
4022;BME280;2025;48.260;16.432;2023-07-20T07:50:38;99463.91;;;23.95;50.27
4022;BME280;2025;48.260;16.432;2023-07-20T07:53:05;99478.69;;;23.88;49.43
4022;BME280;2025;48.260;16.432;2023-07-20T07:55:32;99474.97;;;23.94;48.72
4022;BME280;2025;48.260;16.432;2023-07-20T07:57:59;99482.22;;;23.98;48.66
4022;BME280;2025;48.260;16.432;2023-07-20T08:00:26;99469.28;;;23.85;49.53
4022;BME280;2025;48.260;16.432;2023-07-20T08:02:53;99473.25;;;23.77;50.00
4022;BME280;2025;48.260;16.432;2023-07-20T08:05:20;99475.47;;;23.91;48.74
4022;BME280;2025;48.260;16.432;2023-07-20T08:07:49;99472.78;;;23.91;49.78
4022;BME280;2025;48.260;16.432;2023-07-20T08:10:15;99473.63;;;23.96;50.01
4022;BME280;2025;48.260;16.432;2023-07-20T08:12:42;99466.38;;;24.12;48.85
4022;BME280;2025;48.260;16.432;2023-07-20T08:15:11;99466.16;;;24.29;47.51
4022;BME280;2025;48.260;16.432;2023-07-20T08:17:40;99469.91;;;24.28;49.68
4022;BME280;2025;48.260;16.432;2023-07-20T08:20:08;99471.28;;;24.46;48.14
4022;BME280;2025;48.260;16.432;2023-07-20T08:22:37;99468.38;;;24.58;48.67
4022;BME280;2025;48.260;16.432;2023-07-20T08:25:07;99465.94;;;24.87;51.62
4022;BME280;2025;48.260;16.432;2023-07-20T08:27:34;99462.97;;;24.89;47.12
4022;BME280;2025;48.260;16.432;2023-07-20T08:30:02;99463.81;;;24.94;50.68
4022;BME280;2025;48.260;16.432;2023-07-20T08:32:30;99458.16;;;24.86;49.20
4022;BME280;2025;48.260;16.432;2023-07-20T08:34:56;99462.47;;;24.71;47.10
4022;BME280;2025;48.260;16.432;2023-07-20T08:37:23;99455.16;;;24.87;46.47
4022;BME280;2025;48.260;16.432;2023-07-20T08:39:50;99444.91;;;25.05;47.47
4022;BME280;2025;48.260;16.432;2023-07-20T08:42:19;99453.81;;;25.05;48.12
4022;BME280;2025;48.260;16.432;2023-07-20T08:44:48;99456.28;;;24.76;47.23
4022;BME280;2025;48.260;16.432;2023-07-20T08:47:16;99448.44;;;24.49;48.26
4022;BME280;2025;48.260;16.432;2023-07-20T08:49:44;99451.06;;;24.23;48.58
4022;BME280;2025;48.260;16.432;2023-07-20T08:52:14;99458.56;;;24.01;48.46
4022;BME280;2025;48.260;16.432;2023-07-20T08:54:41;99453.31;;;23.68;52.19
4022;BME280;2025;48.260;16.432;2023-07-20T08:57:10;99455.13;;;23.47;52.15
4022;BME280;2025;48.260;16.432;2023-07-20T08:59:42;99470.91;;;23.39;51.34
4022;BME280;2025;48.260;16.432;2023-07-20T09:02:15;99484.41;;;23.06;56.08
4022;BME280;2025;48.260;16.432;2023-07-20T09:04:44;99483.56;;;22.41;61.65
4022;BME280;2025;48.260;16.432;2023-07-20T09:07:11;99482.47;;;22.15;60.26
4022;BME280;2025;48.260;16.432;2023-07-20T09:09:40;99489.34;;;22.06;63.84
4022;BME280;2025;48.260;16.432;2023-07-20T09:12:13;99476.13;;;22.21;64.13
4022;BME280;2025;48.260;16.432;2023-07-20T09:14:42;99469.56;;;22.66;65.17
4022;BME280;2025;48.260;16.432;2023-07-20T09:17:13;99466.72;;;23.10;57.92
4022;BME280;2025;48.260;16.432;2023-07-20T09:19:46;99469.59;;;23.41;57.39
4022;BME280;2025;48.260;16.432;2023-07-20T09:22:13;99461.16;;;23.75;57.98
4022;BME280;2025;48.260;16.432;2023-07-20T09:24:40;99469.22;;;23.75;60.46
4022;BME280;2025;48.260;16.432;2023-07-20T09:27:08;99460.78;;;23.61;57.80
4022;BME280;2025;48.260;16.432;2023-07-20T09:29:47;99464.47;;;23.45;59.83
4022;BME280;2025;48.260;16.432;2023-07-20T09:32:18;99468.94;;;23.24;58.29
4022;BME280;2025;48.260;16.432;2023-07-20T09:34:46;99477.28;;;22.90;62.24
4022;BME280;2025;48.260;16.432;2023-07-20T09:37:13;99479.88;;;22.47;64.55
4022;BME280;2025;48.260;16.432;2023-07-20T09:39:44;99482.09;;;22.06;65.83
4022;BME280;2025;48.260;16.432;2023-07-20T09:42:11;99490.84;;;21.75;70.55
4022;BME280;2025;48.260;16.432;2023-07-20T09:44:39;99484.50;;;21.59;73.91
4022;BME280;2025;48.260;16.432;2023-07-20T09:47:07;99485.28;;;21.59;73.69
4022;BME280;2025;48.260;16.432;2023-07-20T09:49:39;99485.16;;;21.93;71.61
4022;BME280;2025;48.260;16.432;2023-07-20T09:52:07;99481.97;;;22.18;73.35
4022;BME280;2025;48.260;16.432;2023-07-20T09:54:35;99478.16;;;22.36;69.28
4022;BME280;2025;48.260;16.432;2023-07-20T09:57:05;99482.50;;;22.42;69.58
4022;BME280;2025;48.260;16.432;2023-07-20T09:59:33;99474.56;;;22.52;72.15
4022;BME280;2025;48.260;16.432;2023-07-20T10:02:01;99472.06;;;22.73;69.47
4022;BME280;2025;48.260;16.432;2023-07-20T10:04:34;99467.47;;;23.01;69.10
4022;BME280;2025;48.260;16.432;2023-07-20T10:07:05;99477.84;;;23.29;68.05
4022;BME280;2025;48.260;16.432;2023-07-20T10:09:39;99471.06;;;23.69;63.07
4022;BME280;2025;48.260;16.432;2023-07-20T10:12:08;99474.44;;;24.12;61.05
4022;BME280;2025;48.260;16.432;2023-07-20T10:14:40;99477.78;;;24.66;56.23
4022;BME280;2025;48.260;16.432;2023-07-20T10:17:11;99464.06;;;25.18;54.35
4022;BME280;2025;48.260;16.432;2023-07-20T10:19:43;99470.34;;;25.69;49.04
4022;BME280;2025;48.260;16.432;2023-07-20T10:22:12;99459.00;;;25.77;53.45
4022;BME280;2025;48.260;16.432;2023-07-20T10:24:41;99458.19;;;25.81;49.04
4022;BME280;2025;48.260;16.432;2023-07-20T10:27:08;99457.09;;;25.82;49.73
4022;BME280;2025;48.260;16.432;2023-07-20T10:29:37;99445.00;;;25.75;46.36
4022;BME280;2025;48.260;16.432;2023-07-20T10:32:05;99440.72;;;25.63;47.71
4022;BME280;2025;48.260;16.432;2023-07-20T10:34:34;99445.63;;;25.51;49.78
4022;BME280;2025;48.260;16.432;2023-07-20T10:37:02;99447.81;;;25.34;55.16
4022;BME280;2025;48.260;16.432;2023-07-20T10:39:31;99455.94;;;25.29;53.52
4022;BME280;2025;48.260;16.432;2023-07-20T10:42:02;99457.03;;;25.22;50.99
4022;BME280;2025;48.260;16.432;2023-07-20T10:44:30;99471.56;;;25.37;50.81
4022;BME280;2025;48.260;16.432;2023-07-20T10:47:00;99460.41;;;25.69;47.52
4022;BME280;2025;48.260;16.432;2023-07-20T10:49:28;99451.34;;;26.04;45.77
4022;BME280;2025;48.260;16.432;2023-07-20T10:51:59;99445.53;;;26.26;44.82
4022;BME280;2025;48.260;16.432;2023-07-20T10:54:52;99436.78;;;26.79;43.73
4022;BME280;2025;48.260;16.432;2023-07-20T10:57:24;99426.34;;;26.97;41.59
4022;BME280;2025;48.260;16.432;2023-07-20T10:59:52;99417.72;;;27.24;42.94
4022;BME280;2025;48.260;16.432;2023-07-20T11:02:42;99412.28;;;27.48;41.82
4022;BME280;2025;48.260;16.432;2023-07-20T11:05:34;99410.44;;;27.19;41.30
4022;BME280;2025;48.260;16.432;2023-07-20T11:08:04;99410.91;;;27.26;44.00
4022;BME280;2025;48.260;16.432;2023-07-20T11:10:33;99406.09;;;27.23;42.20
4022;BME280;2025;48.260;16.432;2023-07-20T11:13:20;99405.94;;;26.85;42.19
4022;BME280;2025;48.260;16.432;2023-07-20T11:16:04;99403.28;;;27.33;38.49
4022;BME280;2025;48.260;16.432;2023-07-20T11:18:34;99394.13;;;27.72;37.81
4022;BME280;2025;48.260;16.432;2023-07-20T11:21:07;99392.28;;;27.68;38.00
4022;BME280;2025;48.260;16.432;2023-07-20T11:23:38;99394.81;;;27.40;36.79
4022;BME280;2025;48.260;16.432;2023-07-20T11:26:06;99408.81;;;27.23;38.72
4022;BME280;2025;48.260;16.432;2023-07-20T11:28:34;99400.56;;;27.33;37.12
4022;BME280;2025;48.260;16.432;2023-07-20T11:31:01;99392.91;;;27.17;37.45
4022;BME280;2025;48.260;16.432;2023-07-20T11:33:28;99405.03;;;27.19;37.78
4022;BME280;2025;48.260;16.432;2023-07-20T11:35:55;99407.28;;;27.36;37.00
4022;BME280;2025;48.260;16.432;2023-07-20T11:38:23;99396.53;;;27.31;36.15
4022;BME280;2025;48.260;16.432;2023-07-20T11:40:51;99401.28;;;27.15;36.69
4022;BME280;2025;48.260;16.432;2023-07-20T11:43:19;99405.31;;;26.64;37.84
4022;BME280;2025;48.260;16.432;2023-07-20T11:45:48;99399.75;;;26.51;37.41
4022;BME280;2025;48.260;16.432;2023-07-20T11:48:16;99392.75;;;26.79;38.00
4022;BME280;2025;48.260;16.432;2023-07-20T11:50:43;99396.59;;;27.26;36.23
4022;BME280;2025;48.260;16.432;2023-07-20T11:53:10;99389.06;;;27.66;36.07
4022;BME280;2025;48.260;16.432;2023-07-20T11:55:38;99401.19;;;28.11;35.36
4022;BME280;2025;48.260;16.432;2023-07-20T11:58:05;99385.88;;;28.21;34.51
4022;BME280;2025;48.260;16.432;2023-07-20T12:00:35;99377.31;;;27.75;34.93
4022;BME280;2025;48.260;16.432;2023-07-20T12:03:05;99399.69;;;27.81;35.92
4022;BME280;2025;48.260;16.432;2023-07-20T12:05:33;99397.00;;;27.38;36.25
4022;BME280;2025;48.260;16.432;2023-07-20T12:08:00;99386.53;;;26.78;36.95
4022;BME280;2025;48.260;16.432;2023-07-20T12:10:28;99385.25;;;26.70;37.31
4022;BME280;2025;48.260;16.432;2023-07-20T12:13:01;99382.34;;;26.67;38.26
4022;BME280;2025;48.260;16.432;2023-07-20T12:15:29;99389.72;;;26.85;38.86
4022;BME280;2025;48.260;16.432;2023-07-20T12:18:00;99373.03;;;27.50;36.76
4022;BME280;2025;48.260;16.432;2023-07-20T12:20:29;99373.38;;;27.87;37.17
4022;BME280;2025;48.260;16.432;2023-07-20T12:22:58;99373.69;;;28.04;36.92
4022;BME280;2025;48.260;16.432;2023-07-20T12:25:39;99370.50;;;27.59;36.42
4022;BME280;2025;48.260;16.432;2023-07-20T12:28:07;99363.94;;;27.65;36.48
4022;BME280;2025;48.260;16.432;2023-07-20T12:30:34;99357.66;;;28.08;35.07
4022;BME280;2025;48.260;16.432;2023-07-20T12:33:03;99349.63;;;28.35;36.72
4022;BME280;2025;48.260;16.432;2023-07-20T12:35:31;99357.19;;;28.20;34.96
4022;BME280;2025;48.260;16.432;2023-07-20T12:37:58;99354.22;;;28.02;34.83
4022;BME280;2025;48.260;16.432;2023-07-20T12:40:25;99360.00;;;27.77;33.41
4022;BME280;2025;48.260;16.432;2023-07-20T12:42:52;99363.03;;;27.51;34.42
4022;BME280;2025;48.260;16.432;2023-07-20T12:45:19;99352.50;;;27.30;35.15
4022;BME280;2025;48.260;16.432;2023-07-20T12:47:46;99357.22;;;27.82;33.56
4022;BME280;2025;48.260;16.432;2023-07-20T12:50:15;99352.41;;;28.30;33.40
4022;BME280;2025;48.260;16.432;2023-07-20T12:52:42;99351.94;;;28.75;31.73
4022;BME280;2025;48.260;16.432;2023-07-20T12:55:09;99354.53;;;28.66;32.01
4022;BME280;2025;48.260;16.432;2023-07-20T12:57:37;99353.72;;;28.66;31.58
4022;BME280;2025;48.260;16.432;2023-07-20T13:00:06;99351.09;;;28.47;32.41
4022;BME280;2025;48.260;16.432;2023-07-20T13:02:34;99352.13;;;28.92;34.27
4022;BME280;2025;48.260;16.432;2023-07-20T13:05:01;99350.97;;;29.26;31.08
4022;BME280;2025;48.260;16.432;2023-07-20T13:07:31;99336.81;;;29.15;30.90
4022;BME280;2025;48.260;16.432;2023-07-20T13:09:58;99344.22;;;29.37;31.23
4022;BME280;2025;48.260;16.432;2023-07-20T13:12:26;99340.78;;;29.32;30.38
4022;BME280;2025;48.260;16.432;2023-07-20T13:14:54;99340.22;;;29.21;30.76
4022;BME280;2025;48.260;16.432;2023-07-20T13:17:21;99346.03;;;28.87;30.69